sensor_id;sensor_type;location;lat;lon;timestamp;P1;durP1;ratioP1;P2;durP2;ratioP2
13255;SDS011;37913;48.370;10.930;2023-03-12T00:00:12;78.77;;;33.40;;
13255;SDS011;37913;48.370;10.930;2023-03-12T00:02:40;74.03;;;31.80;;
13255;SDS011;37913;48.370;10.930;2023-03-12T00:05:08;75.57;;;33.17;;
13255;SDS011;37913;48.370;10.930;2023-03-12T00:07:35;72.43;;;31.37;;
13255;SDS011;37913;48.370;10.930;2023-03-12T00:10:03;80.07;;;34.73;;
13255;SDS011;37913;48.370;10.930;2023-03-12T00:12:31;87.93;;;36.43;;
13255;SDS011;37913;48.370;10.930;2023-03-12T00:14:58;99.97;;;37.77;;
13255;SDS011;37913;48.370;10.930;2023-03-12T00:17:27;84.33;;;35.03;;
13255;SDS011;37913;48.370;10.930;2023-03-12T00:19:54;89.93;;;35.87;;
13255;SDS011;37913;48.370;10.930;2023-03-12T00:22:21;78.00;;;33.73;;
13255;SDS011;37913;48.370;10.930;2023-03-12T00:24:50;112.87;;;37.53;;
13255;SDS011;37913;48.370;10.930;2023-03-12T00:27:17;77.40;;;34.30;;
13255;SDS011;37913;48.370;10.930;2023-03-12T00:29:44;80.23;;;32.80;;
13255;SDS011;37913;48.370;10.930;2023-03-12T00:32:11;76.70;;;32.47;;
13255;SDS011;37913;48.370;10.930;2023-03-12T00:34:39;80.53;;;35.03;;
13255;SDS011;37913;48.370;10.930;2023-03-12T00:37:06;76.77;;;33.40;;
13255;SDS011;37913;48.370;10.930;2023-03-12T00:39:33;75.57;;;34.80;;
13255;SDS011;37913;48.370;10.930;2023-03-12T00:42:00;76.70;;;34.43;;
13255;SDS011;37913;48.370;10.930;2023-03-12T00:44:27;74.70;;;33.77;;
13255;SDS011;37913;48.370;10.930;2023-03-12T00:46:54;64.53;;;31.63;;
13255;SDS011;37913;48.370;10.930;2023-03-12T00:49:21;75.53;;;33.43;;
13255;SDS011;37913;48.370;10.930;2023-03-12T00:51:49;75.93;;;35.30;;
13255;SDS011;37913;48.370;10.930;2023-03-12T00:54:16;81.67;;;37.43;;
13255;SDS011;37913;48.370;10.930;2023-03-12T00:56:43;75.23;;;36.03;;
13255;SDS011;37913;48.370;10.930;2023-03-12T00:59:10;83.83;;;37.47;;
13255;SDS011;37913;48.370;10.930;2023-03-12T01:01:37;80.47;;;35.23;;
13255;SDS011;37913;48.370;10.930;2023-03-12T01:04:04;77.67;;;35.13;;
13255;SDS011;37913;48.370;10.930;2023-03-12T01:06:31;79.97;;;35.27;;
13255;SDS011;37913;48.370;10.930;2023-03-12T01:09:01;74.93;;;33.17;;
13255;SDS011;37913;48.370;10.930;2023-03-12T01:11:29;76.00;;;33.40;;
13255;SDS011;37913;48.370;10.930;2023-03-12T01:13:56;76.17;;;33.73;;
13255;SDS011;37913;48.370;10.930;2023-03-12T01:16:24;71.60;;;33.03;;
13255;SDS011;37913;48.370;10.930;2023-03-12T01:18:52;68.77;;;32.33;;
13255;SDS011;37913;48.370;10.930;2023-03-12T01:21:19;85.87;;;35.97;;
13255;SDS011;37913;48.370;10.930;2023-03-12T01:23:46;73.67;;;33.87;;
13255;SDS011;37913;48.370;10.930;2023-03-12T01:26:14;76.23;;;34.37;;
13255;SDS011;37913;48.370;10.930;2023-03-12T01:28:41;70.00;;;32.00;;
13255;SDS011;37913;48.370;10.930;2023-03-12T01:31:08;85.30;;;35.50;;
13255;SDS011;37913;48.370;10.930;2023-03-12T01:33:37;78.57;;;33.47;;
13255;SDS011;37913;48.370;10.930;2023-03-12T01:36:05;82.63;;;35.87;;
13255;SDS011;37913;48.370;10.930;2023-03-12T01:38:43;81.43;;;35.53;;
13255;SDS011;37913;48.370;10.930;2023-03-12T01:41:09;73.10;;;32.77;;
13255;SDS011;37913;48.370;10.930;2023-03-12T01:43:38;77.10;;;33.43;;
13255;SDS011;37913;48.370;10.930;2023-03-12T01:48:54;72.90;;;32.17;;
13255;SDS011;37913;48.370;10.930;2023-03-12T01:51:24;65.63;;;31.53;;
13255;SDS011;37913;48.370;10.930;2023-03-12T01:53:54;69.97;;;32.07;;
13255;SDS011;37913;48.370;10.930;2023-03-12T01:56:23;74.07;;;32.27;;
13255;SDS011;37913;48.370;10.930;2023-03-12T01:58:55;70.53;;;32.93;;
13255;SDS011;37913;48.370;10.930;2023-03-12T02:01:26;75.53;;;32.70;;
13255;SDS011;37913;48.370;10.930;2023-03-12T02:03:54;70.63;;;31.97;;
13255;SDS011;37913;48.370;10.930;2023-03-12T02:06:24;73.97;;;32.77;;
13255;SDS011;37913;48.370;10.930;2023-03-12T02:08:55;68.03;;;31.03;;
13255;SDS011;37913;48.370;10.930;2023-03-12T02:11:24;70.73;;;30.77;;
13255;SDS011;37913;48.370;10.930;2023-03-12T02:13:51;67.47;;;31.37;;
13255;SDS011;37913;48.370;10.930;2023-03-12T02:16:19;78.43;;;33.33;;
13255;SDS011;37913;48.370;10.930;2023-03-12T02:18:49;64.80;;;31.80;;
13255;SDS011;37913;48.370;10.930;2023-03-12T02:21:19;73.60;;;32.83;;
13255;SDS011;37913;48.370;10.930;2023-03-12T02:23:51;67.53;;;31.40;;
13255;SDS011;37913;48.370;10.930;2023-03-12T02:26:24;63.80;;;31.23;;
13255;SDS011;37913;48.370;10.930;2023-03-12T02:28:53;72.40;;;32.90;;
13255;SDS011;37913;48.370;10.930;2023-03-12T02:31:22;79.83;;;32.77;;
13255;SDS011;37913;48.370;10.930;2023-03-12T02:33:53;70.47;;;30.80;;
13255;SDS011;37913;48.370;10.930;2023-03-12T02:36:23;75.90;;;32.23;;
13255;SDS011;37913;48.370;10.930;2023-03-12T02:38:52;81.33;;;34.27;;
13255;SDS011;37913;48.370;10.930;2023-03-12T02:41:20;85.00;;;34.20;;
13255;SDS011;37913;48.370;10.930;2023-03-12T02:43:51;67.70;;;30.70;;
13255;SDS011;37913;48.370;10.930;2023-03-12T02:49:39;63.83;;;29.47;;
13255;SDS011;37913;48.370;10.930;2023-03-12T02:52:06;66.27;;;30.87;;
13255;SDS011;37913;48.370;10.930;2023-03-12T02:54:33;69.70;;;30.83;;
13255;SDS011;37913;48.370;10.930;2023-03-12T02:57:00;72.13;;;31.43;;
13255;SDS011;37913;48.370;10.930;2023-03-12T02:59:29;63.90;;;29.50;;
13255;SDS011;37913;48.370;10.930;2023-03-12T03:01:56;75.00;;;33.63;;
13255;SDS011;37913;48.370;10.930;2023-03-12T03:04:25;76.77;;;33.43;;
13255;SDS011;37913;48.370;10.930;2023-03-12T03:06:52;66.97;;;32.70;;
13255;SDS011;37913;48.370;10.930;2023-03-12T03:09:19;63.33;;;29.53;;
13255;SDS011;37913;48.370;10.930;2023-03-12T03:11:47;75.07;;;32.03;;
13255;SDS011;37913;48.370;10.930;2023-03-12T03:14:14;58.60;;;28.67;;
13255;SDS011;37913;48.370;10.930;2023-03-12T03:16:42;76.47;;;32.67;;
13255;SDS011;37913;48.370;10.930;2023-03-12T03:19:09;79.07;;;35.37;;
13255;SDS011;37913;48.370;10.930;2023-03-12T03:21:36;79.90;;;34.00;;
13255;SDS011;37913;48.370;10.930;2023-03-12T03:24:03;89.90;;;35.40;;
13255;SDS011;37913;48.370;10.930;2023-03-12T03:26:31;89.40;;;34.97;;
13255;SDS011;37913;48.370;10.930;2023-03-12T03:28:58;84.50;;;33.27;;
13255;SDS011;37913;48.370;10.930;2023-03-12T03:31:25;86.57;;;33.93;;
13255;SDS011;37913;48.370;10.930;2023-03-12T03:33:53;88.17;;;33.90;;
13255;SDS011;37913;48.370;10.930;2023-03-12T03:36:20;73.13;;;31.17;;
13255;SDS011;37913;48.370;10.930;2023-03-12T03:38:47;76.80;;;32.47;;
13255;SDS011;37913;48.370;10.930;2023-03-12T03:41:15;74.30;;;32.67;;
13255;SDS011;37913;48.370;10.930;2023-03-12T03:43:42;65.10;;;30.13;;
13255;SDS011;37913;48.370;10.930;2023-03-12T03:46:10;71.27;;;30.30;;
13255;SDS011;37913;48.370;10.930;2023-03-12T03:48:37;66.13;;;29.30;;
13255;SDS011;37913;48.370;10.930;2023-03-12T03:51:07;68.47;;;31.57;;
13255;SDS011;37913;48.370;10.930;2023-03-12T03:53:35;57.53;;;28.93;;
13255;SDS011;37913;48.370;10.930;2023-03-12T03:56:05;62.30;;;29.23;;
13255;SDS011;37913;48.370;10.930;2023-03-12T03:58:33;80.23;;;31.33;;
13255;SDS011;37913;48.370;10.930;2023-03-12T04:01:00;65.97;;;30.33;;
13255;SDS011;37913;48.370;10.930;2023-03-12T04:03:26;63.13;;;29.87;;
13255;SDS011;37913;48.370;10.930;2023-03-12T04:05:54;67.73;;;30.17;;
13255;SDS011;37913;48.370;10.930;2023-03-12T04:08:22;69.60;;;30.30;;
13255;SDS011;37913;48.370;10.930;2023-03-12T04:10:50;59.93;;;29.63;;
13255;SDS011;37913;48.370;10.930;2023-03-12T04:13:17;65.83;;;29.80;;
13255;SDS011;37913;48.370;10.930;2023-03-12T04:15:45;69.33;;;30.60;;
13255;SDS011;37913;48.370;10.930;2023-03-12T04:18:12;68.17;;;29.93;;
13255;SDS011;37913;48.370;10.930;2023-03-12T04:20:39;69.67;;;30.53;;
13255;SDS011;37913;48.370;10.930;2023-03-12T04:23:06;68.80;;;29.77;;
13255;SDS011;37913;48.370;10.930;2023-03-12T04:25:35;74.03;;;31.70;;
13255;SDS011;37913;48.370;10.930;2023-03-12T04:28:02;73.80;;;33.27;;
13255;SDS011;37913;48.370;10.930;2023-03-12T04:30:30;68.40;;;30.63;;
13255;SDS011;37913;48.370;10.930;2023-03-12T04:32:57;70.03;;;32.00;;
13255;SDS011;37913;48.370;10.930;2023-03-12T04:35:24;72.27;;;32.20;;
13255;SDS011;37913;48.370;10.930;2023-03-12T04:37:51;77.17;;;32.47;;
13255;SDS011;37913;48.370;10.930;2023-03-12T04:40:17;78.00;;;32.90;;
13255;SDS011;37913;48.370;10.930;2023-03-12T04:42:46;73.67;;;33.47;;
13255;SDS011;37913;48.370;10.930;2023-03-12T04:45:13;80.83;;;33.03;;
13255;SDS011;37913;48.370;10.930;2023-03-12T04:47:40;72.37;;;32.23;;
13255;SDS011;37913;48.370;10.930;2023-03-12T04:50:09;82.33;;;33.87;;
13255;SDS011;37913;48.370;10.930;2023-03-12T04:52:37;75.87;;;32.03;;
13255;SDS011;37913;48.370;10.930;2023-03-12T04:55:04;75.77;;;32.63;;
13255;SDS011;37913;48.370;10.930;2023-03-12T04:57:32;84.13;;;35.40;;
13255;SDS011;37913;48.370;10.930;2023-03-12T05:00:00;82.87;;;42.03;;
13255;SDS011;37913;48.370;10.930;2023-03-12T05:02:35;72.43;;;32.80;;
13255;SDS011;37913;48.370;10.930;2023-03-12T05:05:02;79.10;;;33.77;;
13255;SDS011;37913;48.370;10.930;2023-03-12T05:07:29;73.90;;;31.27;;
13255;SDS011;37913;48.370;10.930;2023-03-12T05:09:56;76.10;;;32.70;;
13255;SDS011;37913;48.370;10.930;2023-03-12T05:12:23;73.70;;;32.07;;
13255;SDS011;37913;48.370;10.930;2023-03-12T05:14:50;108.27;;;37.57;;
13255;SDS011;37913;48.370;10.930;2023-03-12T05:17:18;77.53;;;33.40;;
13255;SDS011;37913;48.370;10.930;2023-03-12T05:19:45;76.30;;;33.40;;
13255;SDS011;37913;48.370;10.930;2023-03-12T05:22:12;76.37;;;34.00;;
13255;SDS011;37913;48.370;10.930;2023-03-12T05:24:39;76.40;;;33.50;;
13255;SDS011;37913;48.370;10.930;2023-03-12T05:27:06;76.87;;;33.70;;
13255;SDS011;37913;48.370;10.930;2023-03-12T05:29:33;76.93;;;33.97;;
13255;SDS011;37913;48.370;10.930;2023-03-12T05:32:01;73.83;;;32.77;;
13255;SDS011;37913;48.370;10.930;2023-03-12T05:34:30;84.90;;;34.40;;
13255;SDS011;37913;48.370;10.930;2023-03-12T05:36:57;81.37;;;34.73;;
13255;SDS011;37913;48.370;10.930;2023-03-12T05:39:24;79.80;;;34.40;;
13255;SDS011;37913;48.370;10.930;2023-03-12T05:41:52;83.63;;;34.80;;
13255;SDS011;37913;48.370;10.930;2023-03-12T05:44:21;81.27;;;34.90;;
13255;SDS011;37913;48.370;10.930;2023-03-12T05:46:48;92.10;;;36.40;;
13255;SDS011;37913;48.370;10.930;2023-03-12T05:49:15;81.83;;;34.37;;
13255;SDS011;37913;48.370;10.930;2023-03-12T05:51:44;76.40;;;33.87;;
13255;SDS011;37913;48.370;10.930;2023-03-12T05:54:12;81.87;;;34.90;;
13255;SDS011;37913;48.370;10.930;2023-03-12T05:56:39;81.27;;;36.80;;
13255;SDS011;37913;48.370;10.930;2023-03-12T05:59:06;80.97;;;36.80;;
13255;SDS011;37913;48.370;10.930;2023-03-12T06:01:35;80.03;;;35.57;;
13255;SDS011;37913;48.370;10.930;2023-03-12T06:04:02;80.60;;;36.40;;
13255;SDS011;37913;48.370;10.930;2023-03-12T06:06:29;86.23;;;38.77;;
13255;SDS011;37913;48.370;10.930;2023-03-12T06:08:58;75.40;;;35.20;;
13255;SDS011;37913;48.370;10.930;2023-03-12T06:11:25;78.33;;;34.13;;
13255;SDS011;37913;48.370;10.930;2023-03-12T06:13:52;76.00;;;33.87;;
13255;SDS011;37913;48.370;10.930;2023-03-12T06:16:20;79.00;;;34.90;;
13255;SDS011;37913;48.370;10.930;2023-03-12T06:18:48;83.90;;;34.87;;
13255;SDS011;37913;48.370;10.930;2023-03-12T06:21:18;82.53;;;37.17;;
13255;SDS011;37913;48.370;10.930;2023-03-12T06:23:47;76.67;;;33.97;;
13255;SDS011;37913;48.370;10.930;2023-03-12T06:26:16;75.53;;;33.47;;
13255;SDS011;37913;48.370;10.930;2023-03-12T06:28:43;79.97;;;34.60;;
13255;SDS011;37913;48.370;10.930;2023-03-12T06:31:11;89.27;;;37.03;;
13255;SDS011;37913;48.370;10.930;2023-03-12T06:33:38;89.90;;;36.50;;
13255;SDS011;37913;48.370;10.930;2023-03-12T06:36:05;72.27;;;33.60;;
13255;SDS011;37913;48.370;10.930;2023-03-12T06:38:34;78.37;;;34.50;;
13255;SDS011;37913;48.370;10.930;2023-03-12T06:41:02;80.47;;;34.60;;
13255;SDS011;37913;48.370;10.930;2023-03-12T06:43:32;81.10;;;35.40;;
13255;SDS011;37913;48.370;10.930;2023-03-12T06:46:01;83.67;;;36.03;;
13255;SDS011;37913;48.370;10.930;2023-03-12T06:48:30;70.60;;;33.43;;
13255;SDS011;37913;48.370;10.930;2023-03-12T06:51:00;74.63;;;34.13;;
13255;SDS011;37913;48.370;10.930;2023-03-12T06:53:28;67.63;;;32.67;;
13255;SDS011;37913;48.370;10.930;2023-03-12T06:55:55;72.60;;;33.60;;
13255;SDS011;37913;48.370;10.930;2023-03-12T06:58:21;83.00;;;36.17;;
13255;SDS011;37913;48.370;10.930;2023-03-12T07:00:50;81.43;;;35.40;;
13255;SDS011;37913;48.370;10.930;2023-03-12T07:03:17;79.47;;;35.30;;
13255;SDS011;37913;48.370;10.930;2023-03-12T07:05:45;86.43;;;36.30;;
13255;SDS011;37913;48.370;10.930;2023-03-12T07:08:13;86.60;;;36.97;;
13255;SDS011;37913;48.370;10.930;2023-03-12T07:10:40;75.77;;;34.57;;
13255;SDS011;37913;48.370;10.930;2023-03-12T07:13:07;84.37;;;36.50;;
13255;SDS011;37913;48.370;10.930;2023-03-12T07:15:35;93.80;;;38.33;;
13255;SDS011;37913;48.370;10.930;2023-03-12T07:18:04;81.87;;;36.00;;
13255;SDS011;37913;48.370;10.930;2023-03-12T07:20:31;85.53;;;36.63;;
13255;SDS011;37913;48.370;10.930;2023-03-12T07:23:01;92.77;;;38.20;;
13255;SDS011;37913;48.370;10.930;2023-03-12T07:25:28;100.87;;;39.27;;
13255;SDS011;37913;48.370;10.930;2023-03-12T07:27:55;71.93;;;34.70;;
13255;SDS011;37913;48.370;10.930;2023-03-12T07:30:21;95.80;;;39.73;;
13255;SDS011;37913;48.370;10.930;2023-03-12T07:32:49;82.77;;;36.03;;
13255;SDS011;37913;48.370;10.930;2023-03-12T07:35:18;87.87;;;36.93;;
13255;SDS011;37913;48.370;10.930;2023-03-12T07:37:45;96.13;;;39.07;;
13255;SDS011;37913;48.370;10.930;2023-03-12T07:40:11;89.75;;;37.45;;
13255;SDS011;37913;48.370;10.930;2023-03-12T07:42:39;88.93;;;37.00;;
13255;SDS011;37913;48.370;10.930;2023-03-12T07:45:06;85.43;;;36.80;;
13255;SDS011;37913;48.370;10.930;2023-03-12T07:47:33;79.63;;;36.13;;
13255;SDS011;37913;48.370;10.930;2023-03-12T07:50:00;87.35;;;37.80;;
13255;SDS011;37913;48.370;10.930;2023-03-12T07:52:28;106.18;;;41.35;;
13255;SDS011;37913;48.370;10.930;2023-03-12T07:54:56;131.82;;;43.35;;
13255;SDS011;37913;48.370;10.930;2023-03-12T07:57:23;91.90;;;38.97;;
13255;SDS011;37913;48.370;10.930;2023-03-12T07:59:50;91.60;;;37.90;;
13255;SDS011;37913;48.370;10.930;2023-03-12T08:02:17;94.23;;;38.90;;
13255;SDS011;37913;48.370;10.930;2023-03-12T08:04:44;107.80;;;41.30;;
13255;SDS011;37913;48.370;10.930;2023-03-12T08:07:12;83.85;;;36.58;;
13255;SDS011;37913;48.370;10.930;2023-03-12T08:09:41;87.03;;;37.25;;
13255;SDS011;37913;48.370;10.930;2023-03-12T08:12:08;96.65;;;38.30;;
13255;SDS011;37913;48.370;10.930;2023-03-12T08:14:35;92.25;;;37.78;;
13255;SDS011;37913;48.370;10.930;2023-03-12T08:17:02;81.68;;;35.90;;
13255;SDS011;37913;48.370;10.930;2023-03-12T08:19:29;81.43;;;35.47;;
13255;SDS011;37913;48.370;10.930;2023-03-12T08:21:56;87.60;;;37.40;;
13255;SDS011;37913;48.370;10.930;2023-03-12T08:24:26;84.35;;;36.22;;
13255;SDS011;37913;48.370;10.930;2023-03-12T08:26:55;80.07;;;35.45;;
13255;SDS011;37913;48.370;10.930;2023-03-12T08:29:21;79.93;;;34.87;;
13255;SDS011;37913;48.370;10.930;2023-03-12T08:31:48;82.47;;;35.10;;
13255;SDS011;37913;48.370;10.930;2023-03-12T08:34:15;81.77;;;34.70;;
13255;SDS011;37913;48.370;10.930;2023-03-12T08:36:42;84.90;;;35.58;;
13255;SDS011;37913;48.370;10.930;2023-03-12T08:39:09;82.57;;;34.70;;
13255;SDS011;37913;48.370;10.930;2023-03-12T08:41:36;80.50;;;34.47;;
13255;SDS011;37913;48.370;10.930;2023-03-12T08:44:04;80.90;;;34.97;;
13255;SDS011;37913;48.370;10.930;2023-03-12T08:46:31;88.28;;;35.78;;
13255;SDS011;37913;48.370;10.930;2023-03-12T08:48:59;78.37;;;34.17;;
13255;SDS011;37913;48.370;10.930;2023-03-12T08:51:25;77.07;;;33.40;;
13255;SDS011;37913;48.370;10.930;2023-03-12T08:53:52;93.93;;;38.10;;
13255;SDS011;37913;48.370;10.930;2023-03-12T08:56:19;71.10;;;33.13;;
13255;SDS011;37913;48.370;10.930;2023-03-12T08:58:46;77.13;;;33.90;;
13255;SDS011;37913;48.370;10.930;2023-03-12T09:01:14;81.03;;;34.80;;
13255;SDS011;37913;48.370;10.930;2023-03-12T09:03:41;75.20;;;33.60;;
13255;SDS011;37913;48.370;10.930;2023-03-12T09:06:09;83.57;;;35.23;;
13255;SDS011;37913;48.370;10.930;2023-03-12T09:08:40;81.13;;;34.73;;
13255;SDS011;37913;48.370;10.930;2023-03-12T09:11:08;77.97;;;34.23;;
13255;SDS011;37913;48.370;10.930;2023-03-12T09:13:36;89.57;;;36.67;;
13255;SDS011;37913;48.370;10.930;2023-03-12T09:16:04;87.60;;;36.42;;
13255;SDS011;37913;48.370;10.930;2023-03-12T09:18:33;78.82;;;34.88;;
13255;SDS011;37913;48.370;10.930;2023-03-12T09:21:00;76.15;;;33.40;;
13255;SDS011;37913;48.370;10.930;2023-03-12T09:23:28;75.33;;;33.43;;
13255;SDS011;37913;48.370;10.930;2023-03-12T09:25:55;77.53;;;34.10;;
13255;SDS011;37913;48.370;10.930;2023-03-12T09:28:22;69.63;;;33.00;;
13255;SDS011;37913;48.370;10.930;2023-03-12T09:30:49;74.90;;;33.17;;
13255;SDS011;37913;48.370;10.930;2023-03-12T09:33:16;76.73;;;33.70;;
13255;SDS011;37913;48.370;10.930;2023-03-12T09:35:44;89.53;;;38.00;;
13255;SDS011;37913;48.370;10.930;2023-03-12T09:38:20;91.77;;;37.10;;
13255;SDS011;37913;48.370;10.930;2023-03-12T09:40:47;84.30;;;35.23;;
13255;SDS011;37913;48.370;10.930;2023-03-12T09:43:16;80.13;;;34.87;;
13255;SDS011;37913;48.370;10.930;2023-03-12T09:45:47;78.67;;;36.57;;
13255;SDS011;37913;48.370;10.930;2023-03-12T09:48:16;80.23;;;35.20;;
13255;SDS011;37913;48.370;10.930;2023-03-12T09:50:47;77.13;;;34.83;;
13255;SDS011;37913;48.370;10.930;2023-03-12T09:53:16;82.50;;;35.23;;
13255;SDS011;37913;48.370;10.930;2023-03-12T09:55:51;80.77;;;35.20;;
13255;SDS011;37913;48.370;10.930;2023-03-12T09:58:21;80.57;;;35.10;;
13255;SDS011;37913;48.370;10.930;2023-03-12T10:00:52;84.10;;;34.93;;
13255;SDS011;37913;48.370;10.930;2023-03-12T10:03:28;79.67;;;34.90;;
13255;SDS011;37913;48.370;10.930;2023-03-12T10:06:16;72.97;;;33.23;;
13255;SDS011;37913;48.370;10.930;2023-03-12T10:08:52;77.57;;;33.50;;
13255;SDS011;37913;48.370;10.930;2023-03-12T10:11:31;87.73;;;34.23;;
13255;SDS011;37913;48.370;10.930;2023-03-12T10:14:15;72.50;;;32.67;;
13255;SDS011;37913;48.370;10.930;2023-03-12T10:16:58;79.90;;;34.27;;
13255;SDS011;37913;48.370;10.930;2023-03-12T10:19:41;81.47;;;35.17;;
13255;SDS011;37913;48.370;10.930;2023-03-12T10:22:26;83.53;;;35.10;;
13255;SDS011;37913;48.370;10.930;2023-03-12T10:24:59;99.67;;;37.43;;
13255;SDS011;37913;48.370;10.930;2023-03-12T10:27:32;81.80;;;35.07;;
13255;SDS011;37913;48.370;10.930;2023-03-12T10:30:01;75.97;;;33.23;;
13255;SDS011;37913;48.370;10.930;2023-03-12T10:32:39;83.07;;;34.80;;
13255;SDS011;37913;48.370;10.930;2023-03-12T10:35:14;81.93;;;35.23;;
13255;SDS011;37913;48.370;10.930;2023-03-12T10:37:44;84.47;;;35.13;;
13255;SDS011;37913;48.370;10.930;2023-03-12T10:40:14;78.10;;;34.47;;
13255;SDS011;37913;48.370;10.930;2023-03-12T10:42:42;79.07;;;33.73;;
13255;SDS011;37913;48.370;10.930;2023-03-12T10:45:17;80.40;;;35.03;;
13255;SDS011;37913;48.370;10.930;2023-03-12T10:47:52;81.67;;;34.97;;
13255;SDS011;37913;48.370;10.930;2023-03-12T10:50:22;75.93;;;34.20;;
13255;SDS011;37913;48.370;10.930;2023-03-12T10:52:52;77.37;;;34.80;;
13255;SDS011;37913;48.370;10.930;2023-03-12T10:55:36;82.17;;;34.80;;
13255;SDS011;37913;48.370;10.930;2023-03-12T10:58:04;82.30;;;35.10;;
13255;SDS011;37913;48.370;10.930;2023-03-12T11:00:31;88.25;;;36.72;;
13255;SDS011;37913;48.370;10.930;2023-03-12T11:02:59;83.22;;;35.47;;
13255;SDS011;37913;48.370;10.930;2023-03-12T11:05:28;69.65;;;33.30;;
13255;SDS011;37913;48.370;10.930;2023-03-12T11:07:59;78.00;;;34.72;;
13255;SDS011;37913;48.370;10.930;2023-03-12T11:10:37;83.63;;;35.35;;
13255;SDS011;37913;48.370;10.930;2023-03-12T11:15:51;85.63;;;35.93;;
13255;SDS011;37913;48.370;10.930;2023-03-12T11:18:26;88.18;;;36.53;;
13255;SDS011;37913;48.370;10.930;2023-03-12T11:21:11;74.90;;;34.53;;
13255;SDS011;37913;48.370;10.930;2023-03-12T11:23:42;86.32;;;36.80;;
13255;SDS011;37913;48.370;10.930;2023-03-12T11:26:13;79.05;;;35.15;;
13255;SDS011;37913;48.370;10.930;2023-03-12T11:28:43;83.43;;;36.35;;
13255;SDS011;37913;48.370;10.930;2023-03-12T11:31:14;90.30;;;37.90;;
13255;SDS011;37913;48.370;10.930;2023-03-12T11:33:47;84.10;;;37.55;;
13255;SDS011;37913;48.370;10.930;2023-03-12T11:36:22;78.35;;;35.83;;
13255;SDS011;37913;48.370;10.930;2023-03-12T11:38:59;80.65;;;36.60;;
13255;SDS011;37913;48.370;10.930;2023-03-12T11:41:44;77.85;;;35.83;;
13255;SDS011;37913;48.370;10.930;2023-03-12T11:44:25;93.90;;;38.72;;
13255;SDS011;37913;48.370;10.930;2023-03-12T11:47:06;89.13;;;39.80;;
13255;SDS011;37913;48.370;10.930;2023-03-12T11:49:52;82.88;;;37.58;;
13255;SDS011;37913;48.370;10.930;2023-03-12T11:52:30;86.25;;;37.38;;
13255;SDS011;37913;48.370;10.930;2023-03-12T11:55:17;81.47;;;36.38;;
13255;SDS011;37913;48.370;10.930;2023-03-12T11:57:58;80.93;;;36.58;;
13255;SDS011;37913;48.370;10.930;2023-03-12T12:00:39;85.75;;;37.47;;
13255;SDS011;37913;48.370;10.930;2023-03-12T12:06:12;87.57;;;37.75;;
13255;SDS011;37913;48.370;10.930;2023-03-12T12:08:53;90.20;;;38.08;;
13255;SDS011;37913;48.370;10.930;2023-03-12T12:11:32;85.55;;;37.00;;
13255;SDS011;37913;48.370;10.930;2023-03-12T12:14:09;81.28;;;35.92;;
13255;SDS011;37913;48.370;10.930;2023-03-12T12:16:48;98.18;;;39.10;;
13255;SDS011;37913;48.370;10.930;2023-03-12T12:19:26;93.20;;;38.95;;
13255;SDS011;37913;48.370;10.930;2023-03-12T12:22:13;84.75;;;37.03;;
13255;SDS011;37913;48.370;10.930;2023-03-12T12:25:01;105.72;;;41.17;;
13255;SDS011;37913;48.370;10.930;2023-03-12T12:27:46;81.70;;;37.00;;
13255;SDS011;37913;48.370;10.930;2023-03-12T12:30:21;80.85;;;36.47;;
13255;SDS011;37913;48.370;10.930;2023-03-12T12:32:59;89.63;;;38.17;;
13255;SDS011;37913;48.370;10.930;2023-03-12T12:35:38;111.60;;;41.60;;
13255;SDS011;37913;48.370;10.930;2023-03-12T12:38:09;82.68;;;36.03;;
13255;SDS011;37913;48.370;10.930;2023-03-12T12:40:44;93.75;;;38.83;;
13255;SDS011;37913;48.370;10.930;2023-03-12T12:43:21;84.20;;;37.60;;
13255;SDS011;37913;48.370;10.930;2023-03-12T12:45:54;97.55;;;39.92;;
13255;SDS011;37913;48.370;10.930;2023-03-12T12:48:25;88.63;;;37.45;;
13255;SDS011;37913;48.370;10.930;2023-03-12T12:50:57;87.30;;;39.70;;
13255;SDS011;37913;48.370;10.930;2023-03-12T12:53:27;84.70;;;37.38;;
13255;SDS011;37913;48.370;10.930;2023-03-12T12:56:02;84.43;;;36.75;;
13255;SDS011;37913;48.370;10.930;2023-03-12T12:58:43;85.25;;;37.20;;
13255;SDS011;37913;48.370;10.930;2023-03-12T13:01:21;98.70;;;40.25;;
13255;SDS011;37913;48.370;10.930;2023-03-12T13:03:48;85.78;;;39.90;;
13255;SDS011;37913;48.370;10.930;2023-03-12T13:06:16;93.10;;;40.47;;
13255;SDS011;37913;48.370;10.930;2023-03-12T13:09:12;79.90;;;38.03;;
13255;SDS011;37913;48.370;10.930;2023-03-12T13:11:42;92.53;;;39.92;;
13255;SDS011;37913;48.370;10.930;2023-03-12T13:14:13;85.75;;;38.80;;
13255;SDS011;37913;48.370;10.930;2023-03-12T13:16:44;93.60;;;39.90;;
13255;SDS011;37913;48.370;10.930;2023-03-12T13:19:23;86.78;;;38.03;;
13255;SDS011;37913;48.370;10.930;2023-03-12T13:21:58;85.55;;;38.97;;
13255;SDS011;37913;48.370;10.930;2023-03-12T13:24:34;93.50;;;41.47;;
13255;SDS011;37913;48.370;10.930;2023-03-12T13:27:12;87.40;;;39.22;;
13255;SDS011;37913;48.370;10.930;2023-03-12T13:29:45;91.97;;;39.85;;
13255;SDS011;37913;48.370;10.930;2023-03-12T13:35:29;93.82;;;41.50;;
13255;SDS011;37913;48.370;10.930;2023-03-12T13:38:04;91.10;;;41.60;;
13255;SDS011;37913;48.370;10.930;2023-03-12T13:43:31;92.25;;;42.45;;
13255;SDS011;37913;48.370;10.930;2023-03-12T13:46:12;90.57;;;41.58;;
13255;SDS011;37913;48.370;10.930;2023-03-12T13:48:52;91.30;;;41.65;;
13255;SDS011;37913;48.370;10.930;2023-03-12T13:51:24;96.57;;;43.60;;
13255;SDS011;37913;48.370;10.930;2023-03-12T13:53:53;110.72;;;47.40;;
13255;SDS011;37913;48.370;10.930;2023-03-12T13:56:24;85.00;;;40.17;;
13255;SDS011;37913;48.370;10.930;2023-03-12T13:58:53;92.78;;;41.35;;
13255;SDS011;37913;48.370;10.930;2023-03-12T14:01:25;93.88;;;41.28;;
13255;SDS011;37913;48.370;10.930;2023-03-12T14:03:55;71.70;;;36.67;;
13255;SDS011;37913;48.370;10.930;2023-03-12T14:06:26;83.28;;;38.60;;
13255;SDS011;37913;48.370;10.930;2023-03-12T14:09:02;103.43;;;41.95;;
13255;SDS011;37913;48.370;10.930;2023-03-12T14:11:41;96.82;;;41.00;;
13255;SDS011;37913;48.370;10.930;2023-03-12T14:17:24;100.05;;;41.72;;
13255;SDS011;37913;48.370;10.930;2023-03-12T14:19:55;92.95;;;40.55;;
13255;SDS011;37913;48.370;10.930;2023-03-12T14:22:24;82.70;;;39.08;;
13255;SDS011;37913;48.370;10.930;2023-03-12T14:24:57;124.97;;;47.20;;
13255;SDS011;37913;48.370;10.930;2023-03-12T14:27:28;89.43;;;38.60;;
13255;SDS011;37913;48.370;10.930;2023-03-12T14:29:58;86.43;;;37.30;;
13255;SDS011;37913;48.370;10.930;2023-03-12T14:32:38;90.13;;;39.33;;
13255;SDS011;37913;48.370;10.930;2023-03-12T14:35:12;83.38;;;36.85;;
13255;SDS011;37913;48.370;10.930;2023-03-12T14:37:45;76.20;;;35.53;;
13255;SDS011;37913;48.370;10.930;2023-03-12T14:40:19;90.63;;;38.53;;
13255;SDS011;37913;48.370;10.930;2023-03-12T14:42:48;85.45;;;36.88;;
13255;SDS011;37913;48.370;10.930;2023-03-12T14:45:16;84.38;;;36.72;;